Latest Weather Observations for Oodnadatta

IDS60801

Issued at 10:05 pm CST Tuesday 29 July 2014 (issued every 30 minutes, with the page automatically refreshed every 10 minutes)

About weather observations | Map of weather stations | Latest weather observations for SA | Other Formats
Station Details ID: 017043 Name: OODNADATTA AIRPORT Lat: -27.56 Lon: 135.45 Height: 116.5 m
Data from the previous 72 hours. | See also: Recent months at Oodnadatta
Date/Time
CST
Temp
°C
App
Temp
°C
Dew
Point
Rel
Hum
%
Delta-T
°C
Wind Press
QNH
hPa
Press
MSL
hPa
Rain
since 9 am
mm
Dir
 
Spd
km/h
Gust
km/h
Spd
kts
Gust
kts
29/10:00pm 15.1 10.8 -1.5 32 6.8 SSE 11 17 6 9 1023.4 - 0.0
29/09:30pm 15.6 11.2 -2.3 29 7.2 S 11 11 6 6 1023.3 - 0.0
29/09:00pm 16.5 11.7 -2.5 27 7.7 S 13 13 7 7 1023.1 1023.1 0.0
29/08:30pm 17.9 13.1 -2.4 25 8.4 S 13 13 7 7 1022.8 - 0.0
29/08:00pm 18.5 14.1 -2.4 24 8.7 S 11 13 6 7 1022.5 - 0.0
29/07:30pm 18.5 13.7 -2.4 24 8.7 SSW 13 15 7 8 1022.2 - 0.0
29/07:00pm 19.8 14.6 -2.5 22 9.4 SSW 15 15 8 8 1021.9 - 0.0
29/06:00pm 22.9 17.3 -2.6 18 11.0 SSW 17 22 9 12 1021.4 1021.4 0.0
29/05:30pm 24.4 17.8 -3.0 16 11.9 SW 22 24 12 13 1021.0 - 0.0
29/05:00pm 24.9 17.9 -3.5 15 12.3 S 24 35 13 19 1020.7 - 0.0
29/04:30pm 25.6 19.4 -2.9 15 12.6 SSW 20 32 11 17 1020.6 - 0.0
29/04:00pm 25.7 19.6 -3.8 14 12.8 SW 19 32 10 17 1020.4 - 0.0
29/03:30pm 26.3 20.3 -3.3 14 13.0 WSW 19 24 10 13 1020.3 - 0.0
29/03:00pm 25.8 20.9 -3.7 14 12.8 SSW 13 24 7 13 1020.2 1020.2 0.0
29/02:30pm 25.1 20.6 -3.3 15 12.4 SW 11 17 6 9 1020.3 - 0.0
29/02:00pm 25.4 20.9 -3.1 15 12.5 WSW 11 22 6 12 1020.6 - 0.0
29/01:30pm 25.1 20.6 -3.3 15 12.4 WNW 11 19 6 10 1021.1 - 0.0
29/01:00pm 24.5 21.0 -2.9 16 12.0 WSW 6 9 3 5 1021.7 - 0.0
29/12:30pm 23.7 20.0 -2.8 17 11.5 SW 7 11 4 6 1022.4 - 0.0
29/12:00pm 22.6 18.1 -2.9 18 10.9 SSW 11 17 6 9 1022.8 1022.8 0.0
29/11:30am 21.2 17.2 -2.6 20 10.1 S 9 15 5 8 1023.1 - 0.0
29/11:00am 20.1 15.6 -2.9 21 9.6 SSW 11 15 6 8 1023.4 - 0.0
29/10:30am 18.7 14.3 -2.8 23 8.9 SSW 11 15 6 8 1023.6 - 0.0
29/10:00am 16.6 12.8 -3.5 25 8.0 S 7 9 4 5 1023.5 - 0.0
29/09:30am 14.7 12.2 -4.1 27 7.3 CALM 0 0 0 0 1023.3 - 0.0
29/09:00am 12.6 8.9 -4.5 30 6.4 WSW 6 7 3 4 1023.1 1023.1 0.0
29/08:30am 10.3 6.4 -4.9 34 5.5 WSW 7 9 4 5 1022.7 - 0.0
29/08:00am 7.7 3.3 -5.7 38 4.6 WSW 9 11 5 6 1022.8 - 0.0
29/07:30am 5.7 1.6 -6.2 42 3.9 SSW 7 19 4 10 1022.4 - 0.0
29/07:00am 6.9 2.8 -6.8 37 4.5 S 7 9 4 5 1022.1 - 0.0
29/06:30am 8.2 3.9 -4.6 40 4.5 S 9 11 5 6 1021.8 - 0.0
29/06:00am 6.8 2.7 -6.5 38 4.4 S 7 9 4 5 1021.8 1021.8 0.0
29/05:30am 6.7 3.9 -6.6 38 4.4 CALM 0 6 0 3 1021.5 - 0.0
29/05:00am 7.9 4.0 -6.6 35 4.9 S 6 9 3 5 1021.4 - 0.0
29/04:30am 8.3 4.3 -5.9 36 4.9 S 7 7 4 4 1021.2 - 0.0
29/04:00am 8.8 5.0 -5.1 37 4.9 S 6 6 3 3 1021.1 - 0.0
29/03:30am 9.3 5.3 -5.7 34 5.3 S 7 9 4 5 1021.1 - 0.0
29/03:00am 9.5 5.5 -5.2 35 5.2 S 7 9 4 5 1021.0 1021.0 0.0
29/02:30am 9.6 5.8 -5.1 35 5.2 S 6 7 3 4 1020.8 - 0.0
29/02:00am 9.8 7.1 -5.7 33 5.5 CALM 0 0 0 0 1020.9 - 0.0
29/01:30am 13.2 9.4 -3.5 31 6.4 S 7 9 4 5 1020.9 - 0.0
29/01:00am 13.4 11.0 -3.4 31 6.5 CALM 0 0 0 0 1020.9 - 0.0
29/12:30am 13.4 11.0 -3.4 31 6.5 CALM 0 0 0 0 1021.0 - 0.0
29/12:00am 12.1 8.8 -4.5 31 6.2 S 4 6 2 3 1021.0 1021.0 0.0
 
Date/Time
CST
Temp
°C
App
Temp
°C
Dew
Point
Rel
Hum
%
Delta-T
°C
Wind Press
QNH
hPa
Press
MSL
hPa
Rain
since 9 am
mm
Dir
 
Spd
km/h
Gust
km/h
Spd
kts
Gust
kts
28/11:30pm 13.2 10.6 -4.9 28 6.8 CALM 0 0 0 0 1020.9 - 0.0
28/11:00pm 15.9 13.5 -3.1 27 7.6 CALM 0 0 0 0 1020.7 - 0.0
28/10:30pm 15.7 13.4 -2.7 28 7.4 CALM 0 6 0 3 1020.6 - 0.0
28/10:00pm 15.2 12.0 -3.2 28 7.3 S 4 7 2 4 1020.5 - 0.0
28/09:30pm 16.0 12.2 -3.5 26 7.8 S 7 11 4 6 1020.2 - 0.0
28/09:00pm 17.5 13.4 -2.7 25 8.3 SSW 9 11 5 6 1020.0 1020.0 0.0
28/08:30pm 18.7 15.1 -2.3 24 8.8 SSW 7 9 4 5 1019.7 - 0.0
28/08:00pm 19.9 16.0 -1.8 23 9.3 SW 9 11 5 6 1019.5 - 0.0
28/07:30pm 20.1 16.1 -2.3 22 9.5 SW 9 11 5 6 1019.4 - 0.0
28/07:00pm 20.8 16.0 -2.3 21 9.9 SW 13 15 7 8 1019.0 - 0.0
28/06:30pm 22.7 18.7 -2.1 19 10.8 SW 9 11 5 6 1018.6 - 0.0
28/06:00pm 24.2 19.5 -1.6 18 11.5 WSW 13 19 7 10 1018.2 1018.3 0.0
28/05:30pm 25.9 20.4 -1.8 16 12.5 WSW 17 24 9 13 1018.1 - 0.0
28/05:00pm 26.7 21.2 -2.1 15 13.0 W 17 24 9 13 1017.9 - 0.0
28/04:30pm 27.0 22.4 -0.9 16 12.9 W 13 19 7 10 1017.8 - 0.0
28/04:00pm 26.8 21.1 -1.1 16 12.8 W 19 28 10 15 1017.8 - 0.0
28/03:30pm 26.8 21.5 -0.3 17 12.6 WNW 17 24 9 13 1017.9 - 0.0
28/03:00pm 26.8 24.5 0.5 18 12.4 W 2 28 1 15 1018.2 1018.3 0.0
28/02:30pm 26.4 19.9 0.2 18 12.3 W 24 32 13 17 1018.3 - 0.0
28/02:00pm 27.1 21.1 0.8 18 12.5 NW 22 35 12 19 1018.8 - 0.0
28/01:30pm 25.1 18.5 -0.1 19 11.6 NW 24 37 13 20 1019.3 - 0.0
28/01:00pm 24.9 17.9 -0.3 19 11.6 NNW 26 41 14 22 1020.0 - 0.0
28/12:30pm 23.9 16.9 -0.4 20 11.1 NNW 26 33 14 18 1020.8 - 0.0
28/12:00pm 22.7 15.7 -0.7 21 10.4 NNW 26 33 14 18 1021.4 1021.4 0.0
28/11:30am 22.1 13.9 -1.2 21 10.3 NNW 32 39 17 21 1021.7 - 0.0
28/11:00am 21.2 13.8 -0.7 23 9.7 NNW 28 37 15 20 1022.2 - 0.0
28/10:30am 19.3 11.4 -1.2 25 8.8 NNW 30 35 16 19 1022.5 - 0.0
28/10:00am 18.3 11.6 -1.0 27 8.3 NNW 24 35 13 19 1022.8 - 0.0
28/09:30am 16.2 9.8 -1.4 30 7.3 NNW 22 28 12 15 1022.9 - 0.0
28/09:00am 14.1 9.4 -1.9 33 6.4 N 13 17 7 9 1022.8 1022.8 0.0
28/08:30am 11.0 6.2 -2.4 39 5.2 NNW 13 17 7 9 1022.9 - 0.0
28/08:00am 8.3 4.2 -2.9 45 4.1 NNW 9 11 5 6 1022.6 - 0.0
28/07:30am 7.9 3.5 -2.7 47 3.9 NNW 11 13 6 7 1022.4 - 0.0
28/07:00am 7.5 2.7 -2.8 48 3.8 NNW 13 15 7 8 1022.1 - 0.0
28/06:30am 8.0 3.2 -2.9 46 4.0 NW 13 15 7 8 1022.0 - 0.0
28/06:00am 8.4 4.3 -3.1 44 4.2 NNW 9 9 5 5 1021.8 1021.8 0.0
28/05:30am 10.8 6.8 -2.2 40 5.0 N 9 15 5 8 1021.5 - 0.0
28/05:00am 11.4 6.6 -2.4 38 5.4 N 13 15 7 8 1021.4 - 0.0
28/04:30am 11.9 7.2 -1.9 38 5.4 N 13 17 7 9 1021.4 - 0.0
28/04:00am 11.7 7.3 -2.5 37 5.5 N 11 15 6 8 1021.3 - 0.0
28/03:30am 12.9 8.5 -2.2 35 6.0 N 11 17 6 9 1021.3 - 0.0
28/03:00am 13.2 7.7 -2.3 34 6.1 N 17 24 9 13 1021.3 1021.3 0.0
28/02:30am 13.6 7.2 -1.9 34 6.2 NNE 22 28 12 15 1021.3 - 0.0
28/02:00am 13.7 6.8 -2.3 33 6.4 NNE 24 30 13 16 1021.3 - 0.0
28/01:30am 14.4 7.3 -1.6 33 6.5 NNE 26 32 14 17 1021.3 - 0.0
28/01:00am 14.7 7.9 -1.8 32 6.7 NNE 24 30 13 16 1021.4 - 0.0
28/12:30am 14.5 8.7 -1.6 33 6.6 NE 19 24 10 13 1021.5 - 0.0
28/12:00am 14.9 8.6 -0.8 34 6.5 NE 22 28 12 15 1021.7 1021.7 0.0
 
Date/Time
CST
Temp
°C
App
Temp
°C
Dew
Point
Rel
Hum
%
Delta-T
°C
Wind Press
QNH
hPa
Press
MSL
hPa
Rain
since 9 am
mm
Dir
 
Spd
km/h
Gust
km/h
Spd
kts
Gust
kts
27/11:30pm 14.9 9.0 -0.8 34 6.5 NE 20 24 11 13 1021.8 - 0.0
27/11:00pm 14.9 9.0 -0.8 34 6.5 NE 20 22 11 12 1021.9 - 0.0
27/10:30pm 15.7 10.0 -0.5 33 6.9 NNE 19 22 10 12 1022.0 - 0.0
27/10:00pm 16.2 10.6 -0.1 33 7.0 NE 19 22 10 12 1022.2 - 0.0
27/09:30pm 16.1 10.6 0.3 34 6.8 NNE 19 20 10 11 1022.2 - 0.0
27/09:00pm 16.8 11.2 0.0 32 7.2 NNE 19 22 10 12 1022.3 1022.3 0.0
27/08:30pm 17.2 11.6 -0.1 31 7.5 NNE 19 20 10 11 1022.4 - 0.0
27/08:00pm 16.4 11.5 -0.8 31 7.3 NE 15 19 8 10 1022.4 - 0.0
27/07:30pm 17.9 13.8 -0.4 29 7.9 NE 11 13 6 7 1022.3 - 0.0
27/07:00pm 19.6 17.6 0.1 27 8.7 CALM 0 6 0 3 1022.1 - 0.0
27/06:30pm 20.4 18.5 0.3 26 9.0 CALM 0 0 0 0 1021.8 - 0.0
27/06:00pm 22.1 20.2 0.6 24 9.8 CALM 0 0 0 0 1021.6 1021.6 0.0
27/05:30pm 23.5 20.6 1.2 23 10.4 NNW 6 9 3 5 1021.4 - 0.0
27/05:00pm 23.8 20.2 0.8 22 10.7 NW 9 15 5 8 1021.4 - 0.0
27/04:30pm 24.1 20.6 1.1 22 10.8 N 9 17 5 9 1021.4 - 0.0
27/04:00pm 24.1 21.0 1.1 22 10.8 NNW 7 13 4 7 1021.4 - 0.0
27/03:30pm 23.8 19.1 0.8 22 10.7 NNW 15 28 8 15 1021.6 - 0.0
27/03:00pm 23.6 19.7 1.3 23 10.4 NNW 11 22 6 12 1021.9 1021.9 0.0
27/02:30pm 23.4 20.3 1.1 23 10.4 N 7 15 4 8 1022.3 - 0.0
27/02:00pm 22.9 17.5 1.3 24 10.1 N 19 26 10 14 1022.7 - 0.0
27/01:30pm 22.9 18.3 1.3 24 10.1 NNW 15 24 8 13 1023.3 - 0.0
27/01:00pm 22.7 17.4 1.7 25 9.9 NNW 19 26 10 14 1024.0 - 0.0
27/12:30pm 21.7 16.1 1.4 26 9.4 NNW 20 32 11 17 1024.7 - 0.0
27/12:00pm 21.5 15.4 0.7 25 9.5 N 22 30 12 16 1025.3 - 0.0
27/11:30am 20.7 14.3 1.1 27 9.0 N 24 32 13 17 1025.7 - 0.0
27/11:00am 19.7 13.3 1.2 29 8.4 N 24 30 13 16 1026.2 - 0.0
27/10:30am 18.8 12.1 1.3 31 7.9 N 26 33 14 18 1026.5 - 0.0
27/10:00am 17.7 11.3 1.2 33 7.4 NNE 24 32 13 17 1026.6 - 0.0
27/09:30am 16.3 10.7 1.2 36 6.7 N 20 26 11 14 1026.7 - 0.0
27/09:00am 14.6 10.0 1.5 41 5.7 N 15 20 8 11 1026.6 1026.7 0.0
27/08:30am 11.5 7.9 0.6 47 4.5 NNW 9 11 5 6 1026.6 - 0.0
27/08:00am 10.4 6.4 0.4 50 4.1 N 11 13 6 7 1026.5 - 0.0
27/07:30am 8.4 5.1 -0.1 55 3.4 N 7 9 4 5 1026.1 - 0.0
27/07:00am 9.4 5.0 0.1 52 3.7 NNE 13 17 7 9 1025.8 - 0.0
27/06:30am 10.3 5.2 0.6 51 4.0 NNE 17 20 9 11 1025.5 - 0.0
27/06:00am 10.2 4.7 0.5 51 4.0 NNE 19 22 10 12 1025.4 1025.5 0.0
27/05:30am 9.7 4.2 0.3 52 3.8 NE 19 20 10 11 1025.3 - 0.0
27/05:00am 9.9 4.4 0.3 51 3.9 NE 19 22 10 12 1025.2 - 0.0
27/04:30am 10.0 5.2 0.1 50 4.0 NE 15 19 8 10 1025.3 - 0.0
27/04:00am 10.4 5.2 0.4 50 4.1 NE 17 20 9 11 1025.2 - 0.0
27/03:30am 10.7 6.0 0.7 50 4.1 NE 15 19 8 10 1025.4 - 0.0
27/03:00am 10.9 5.4 0.3 48 4.3 NE 19 22 10 12 1025.7 1025.8 0.0
27/02:30am 10.0 4.8 -0.2 49 4.1 NE 17 19 9 10 1025.7 - 0.0
27/02:00am 10.7 5.1 -0.1 47 4.4 NE 19 20 10 11 1025.9 - 0.0
27/01:30am 11.0 5.4 -0.2 46 4.6 NE 19 20 10 11 1026.2 - 0.0
27/01:00am 11.0 5.8 -0.2 46 4.6 NE 17 17 9 9 1026.4 - 0.0
27/12:30am 11.1 6.2 -0.4 45 4.7 NE 15 17 8 9 1026.5 - 0.0
27/12:00am 12.0 6.8 0.1 44 4.9 NE 17 19 9 10 1026.5 1026.6 0.0
 
Date/Time
CST
Temp
°C
App
Temp
°C
Dew
Point
Rel
Hum
%
Delta-T
°C
Wind Press
QNH
hPa
Press
MSL
hPa
Rain
since 9 am
mm
Dir
 
Spd
km/h
Gust
km/h
Spd
kts
Gust
kts
26/11:30pm 10.5 5.5 -1.2 44 4.6 NE 15 17 8 9 1026.6 - 0.0
26/11:00pm 11.9 7.0 -0.6 42 5.1 ENE 15 17 8 9 1026.8 - 0.0
26/10:30pm 12.1 7.5 -0.7 41 5.2 ENE 13 15 7 8 1026.8 - 0.0

Other Formats:

Comma delimited format used in spreadsheet applications
http://www.bom.gov.au/fwo/IDS60801/IDS60801.94476.axf

JavaScript Object Notation format (JSON) in row-major order
http://www.bom.gov.au/fwo/IDS60801/IDS60801.94476.json